QLK11D YSSY-YORG
Flight info
| Callsign | QLK11D |
|---|---|
| Flight time | 0h 29m |
| Altitude | 14000 |
| Route | TESAT A576 KADOM W595 VIRUR |
| Aircraft | DH8D/M-SDFGHRZ/LB1 |
Departure
| Time | 2026-04-17 07:05 |
|---|---|
| Airport | Sydney Kingsford Smith International Airport (YSSY) |
Arrival
| Time | 2026-04-17 07:34 |
|---|---|
| Airport | Orange Airport (YORG) |
| Time | Latitude | Longitude | Altitude | Speed | Heading |
|---|---|---|---|---|---|
| 2026-04-17 06:19 | -33.93304 | 151.17656 | 30 ft | 0 kts | 90° |
| 2026-04-17 06:56 | -33.93305 | 151.17667 | 29 ft | 2 kts | 118° |
| 2026-04-17 06:56 | -33.93319 | 151.17645 | 29 ft | 6 kts | 270° |
| 2026-04-17 06:56 | -33.93343 | 151.17584 | 29 ft | 10 kts | 211° |
| 2026-04-17 06:57 | -33.93361 | 151.17506 | 29 ft | 12 kts | 320° |
| 2026-04-17 06:57 | -33.93255 | 151.17471 | 29 ft | 22 kts | 348° |
| 2026-04-17 06:57 | -33.93124 | 151.17438 | 29 ft | 17 kts | 349° |
| 2026-04-17 06:57 | -33.93044 | 151.17416 | 29 ft | 5 kts | 348° |
| 2026-04-17 06:58 | -33.93024 | 151.17412 | 29 ft | 0 kts | 348° |
| 2026-04-17 07:00 | -33.93023 | 151.17412 | 29 ft | 0 kts | 348° |
| 2026-04-17 07:00 | -33.93024 | 151.17412 | 29 ft | 0 kts | 348° |
| 2026-04-17 07:01 | -33.93023 | 151.17412 | 29 ft | 0 kts | 348° |
| 2026-04-17 07:01 | -33.92992 | 151.17400 | 29 ft | 7 kts | 329° |
| 2026-04-17 07:01 | -33.92966 | 151.17351 | 30 ft | 7 kts | 281° |
| 2026-04-17 07:01 | -33.92961 | 151.17319 | 29 ft | 0 kts | 279° |
| 2026-04-17 07:03 | -33.92960 | 151.17308 | 30 ft | 6 kts | 280° |
| 2026-04-17 07:03 | -33.92961 | 151.17233 | 29 ft | 12 kts | 254° |
| 2026-04-17 07:03 | -33.93021 | 151.17184 | 30 ft | 9 kts | 185° |
| 2026-04-17 07:03 | -33.93048 | 151.17188 | 29 ft | 0 kts | 167° |
| 2026-04-17 07:04 | -33.93055 | 151.17191 | 30 ft | 7 kts | 168° |
| 2026-04-17 07:04 | -33.93395 | 151.17273 | 30 ft | 96 kts | 166° |
| 2026-04-17 07:05 | -33.94274 | 151.17500 | 103 ft | 149 kts | 171° |
| 2026-04-17 07:05 | -33.95320 | 151.17732 | 669 ft | 159 kts | 172° |
| 2026-04-17 07:05 | -33.96388 | 151.17564 | 1332 ft | 164 kts | 212° |
| 2026-04-17 07:05 | -33.97225 | 151.16591 | 1911 ft | 175 kts | 223° |
| 2026-04-17 07:06 | -33.98078 | 151.15469 | 2326 ft | 189 kts | 224° |
| 2026-04-17 07:06 | -33.99013 | 151.14281 | 2744 ft | 201 kts | 225° |
| 2026-04-17 07:06 | -33.99908 | 151.12979 | 2880 ft | 203 kts | 239° |
| 2026-04-17 07:06 | -34.00148 | 151.11316 | 3046 ft | 204 kts | 271° |
| 2026-04-17 07:07 | -33.99939 | 151.09641 | 3215 ft | 205 kts | 279° |
| 2026-04-17 07:07 | -33.99433 | 151.08005 | 3546 ft | 212 kts | 289° |
| 2026-04-17 07:07 | -33.98866 | 151.06453 | 4345 ft | 204 kts | 289° |
| 2026-04-17 07:07 | -33.98294 | 151.04880 | 5024 ft | 205 kts | 290° |
| 2026-04-17 07:08 | -33.97739 | 151.03354 | 5793 ft | 200 kts | 290° |
| 2026-04-17 07:08 | -33.97182 | 151.01820 | 6423 ft | 201 kts | 290° |
| 2026-04-17 07:08 | -33.96627 | 151.00285 | 7101 ft | 201 kts | 290° |
| 2026-04-17 07:08 | -33.96075 | 150.98753 | 7652 ft | 204 kts | 291° |
| 2026-04-17 07:09 | -33.95513 | 150.97198 | 8295 ft | 203 kts | 291° |
| 2026-04-17 07:09 | -33.94948 | 150.95631 | 8814 ft | 207 kts | 291° |
| 2026-04-17 07:09 | -33.94374 | 150.94037 | 9420 ft | 206 kts | 291° |
| 2026-04-17 07:09 | -33.93934 | 150.92819 | 9892 ft | 207 kts | 291° |
| 2026-04-17 07:10 | -33.93365 | 150.91244 | 10504 ft | 204 kts | 291° |
| 2026-04-17 07:10 | -33.92805 | 150.89693 | 11089 ft | 204 kts | 291° |
| 2026-04-17 07:10 | -33.92234 | 150.88113 | 11625 ft | 206 kts | 291° |
| 2026-04-17 07:10 | -33.91667 | 150.86545 | 12181 ft | 205 kts | 290° |
| 2026-04-17 07:11 | -33.91106 | 150.84992 | 12668 ft | 205 kts | 290° |
| 2026-04-17 07:11 | -33.90540 | 150.83424 | 13229 ft | 203 kts | 290° |
| 2026-04-17 07:11 | -33.89972 | 150.81856 | 13680 ft | 206 kts | 289° |
| 2026-04-17 07:11 | -33.89385 | 150.80225 | 13853 ft | 220 kts | 290° |
| 2026-04-17 07:12 | -33.88761 | 150.78490 | 13901 ft | 235 kts | 289° |
| 2026-04-17 07:12 | -33.88090 | 150.76628 | 13932 ft | 249 kts | 290° |
| 2026-04-17 07:12 | -33.87376 | 150.74655 | 13954 ft | 261 kts | 290° |
| 2026-04-17 07:12 | -33.86634 | 150.72612 | 13948 ft | 271 kts | 290° |
| 2026-04-17 07:13 | -33.85870 | 150.70509 | 13931 ft | 272 kts | 290° |
| 2026-04-17 07:13 | -33.85123 | 150.68455 | 13941 ft | 270 kts | 290° |
| 2026-04-17 07:13 | -33.84370 | 150.66386 | 13948 ft | 270 kts | 290° |
| 2026-04-17 07:13 | -33.83595 | 150.64256 | 13922 ft | 265 kts | 290° |
| 2026-04-17 07:14 | -33.82869 | 150.62260 | 13925 ft | 262 kts | 290° |
| 2026-04-17 07:14 | -33.82128 | 150.60228 | 13943 ft | 263 kts | 290° |
| 2026-04-17 07:14 | -33.81388 | 150.58202 | 13949 ft | 264 kts | 290° |
| 2026-04-17 07:14 | -33.80644 | 150.56158 | 13945 ft | 265 kts | 290° |
| 2026-04-17 07:15 | -33.79902 | 150.54128 | 13940 ft | 266 kts | 290° |
| 2026-04-17 07:15 | -33.79157 | 150.52087 | 13950 ft | 267 kts | 290° |
| 2026-04-17 07:15 | -33.78417 | 150.50066 | 13951 ft | 267 kts | 290° |
| 2026-04-17 07:15 | -33.77663 | 150.48003 | 13964 ft | 267 kts | 290° |
| 2026-04-17 07:16 | -33.76920 | 150.45973 | 13972 ft | 268 kts | 290° |
| 2026-04-17 07:16 | -33.76167 | 150.43918 | 13965 ft | 268 kts | 290° |
| 2026-04-17 07:16 | -33.75404 | 150.41836 | 13975 ft | 268 kts | 290° |
| 2026-04-17 07:16 | -33.74647 | 150.39772 | 13969 ft | 268 kts | 290° |
| 2026-04-17 07:17 | -33.73900 | 150.37736 | 13976 ft | 268 kts | 289° |
| 2026-04-17 07:17 | -33.73142 | 150.35672 | 13987 ft | 268 kts | 290° |
| 2026-04-17 07:17 | -33.71630 | 150.31558 | 13994 ft | 269 kts | 290° |
| 2026-04-17 07:18 | -33.70905 | 150.29480 | 13995 ft | 268 kts | 287° |
| 2026-04-17 07:18 | -33.70319 | 150.27374 | 13995 ft | 268 kts | 285° |
| 2026-04-17 07:18 | -33.69751 | 150.25253 | 14009 ft | 268 kts | 285° |
| 2026-04-17 07:18 | -33.69178 | 150.23114 | 14018 ft | 268 kts | 285° |
| 2026-04-17 07:19 | -33.68605 | 150.20979 | 14017 ft | 268 kts | 285° |
| 2026-04-17 07:19 | -33.68030 | 150.18848 | 14022 ft | 268 kts | 285° |
| 2026-04-17 07:19 | -33.67453 | 150.16710 | 14026 ft | 268 kts | 285° |
| 2026-04-17 07:19 | -33.66877 | 150.14580 | 14022 ft | 269 kts | 285° |
| 2026-04-17 07:20 | -33.66298 | 150.12440 | 14022 ft | 269 kts | 285° |
| 2026-04-17 07:20 | -33.65719 | 150.10306 | 14023 ft | 269 kts | 285° |
| 2026-04-17 07:20 | -33.65138 | 150.08165 | 14027 ft | 269 kts | 285° |
| 2026-04-17 07:20 | -33.64562 | 150.06047 | 14025 ft | 268 kts | 284° |
| 2026-04-17 07:21 | -33.63981 | 150.03911 | 14026 ft | 268 kts | 284° |
| 2026-04-17 07:21 | -33.63399 | 150.01776 | 14027 ft | 267 kts | 285° |
| 2026-04-17 07:21 | -33.62819 | 149.99635 | 14030 ft | 267 kts | 284° |
| 2026-04-17 07:21 | -33.62246 | 149.97522 | 14026 ft | 266 kts | 284° |
| 2026-04-17 07:22 | -33.61803 | 149.95372 | 14027 ft | 265 kts | 279° |
| 2026-04-17 07:22 | -33.61478 | 149.93192 | 14018 ft | 264 kts | 278° |
| 2026-04-17 07:22 | -33.61165 | 149.91040 | 14025 ft | 264 kts | 278° |
| 2026-04-17 07:22 | -33.60846 | 149.88850 | 14029 ft | 264 kts | 277° |
| 2026-04-17 07:23 | -33.60533 | 149.86705 | 14018 ft | 264 kts | 277° |
| 2026-04-17 07:23 | -33.60216 | 149.84537 | 14018 ft | 264 kts | 278° |
| 2026-04-17 07:23 | -33.59895 | 149.82342 | 14026 ft | 264 kts | 277° |
| 2026-04-17 07:23 | -33.59578 | 149.80177 | 13947 ft | 267 kts | 278° |
| 2026-04-17 07:24 | -33.59253 | 149.77962 | 13671 ft | 268 kts | 278° |
| 2026-04-17 07:24 | -33.58930 | 149.75754 | 13324 ft | 259 kts | 277° |
| 2026-04-17 07:24 | -33.58623 | 149.73650 | 12981 ft | 254 kts | 277° |
| 2026-04-17 07:24 | -33.58319 | 149.71579 | 12643 ft | 251 kts | 277° |
| 2026-04-17 07:25 | -33.58018 | 149.69533 | 12300 ft | 249 kts | 278° |
| 2026-04-17 07:25 | -33.57716 | 149.67487 | 11947 ft | 247 kts | 277° |
| 2026-04-17 07:25 | -33.57418 | 149.65466 | 11603 ft | 245 kts | 277° |
| 2026-04-17 07:25 | -33.57120 | 149.63463 | 11264 ft | 244 kts | 277° |
| 2026-04-17 07:26 | -33.56827 | 149.61485 | 10920 ft | 243 kts | 278° |
| 2026-04-17 07:26 | -33.56530 | 149.59480 | 10539 ft | 244 kts | 278° |
| 2026-04-17 07:26 | -33.56231 | 149.57477 | 10176 ft | 243 kts | 278° |
| 2026-04-17 07:26 | -33.55935 | 149.55490 | 9829 ft | 243 kts | 278° |
| 2026-04-17 07:27 | -33.55640 | 149.53507 | 9487 ft | 242 kts | 277° |
| 2026-04-17 07:27 | -33.55342 | 149.51515 | 9143 ft | 242 kts | 277° |
| 2026-04-17 07:27 | -33.55048 | 149.49548 | 8800 ft | 240 kts | 278° |
| 2026-04-17 07:27 | -33.54760 | 149.47617 | 8471 ft | 234 kts | 278° |
| 2026-04-17 07:28 | -33.54478 | 149.45726 | 8144 ft | 227 kts | 278° |
| 2026-04-17 07:28 | -33.54204 | 149.43890 | 7827 ft | 220 kts | 278° |
| 2026-04-17 07:28 | -33.53934 | 149.42082 | 7516 ft | 211 kts | 278° |
| 2026-04-17 07:28 | -33.53684 | 149.40407 | 7228 ft | 202 kts | 278° |
| 2026-04-17 07:29 | -33.53400 | 149.38783 | 6936 ft | 194 kts | 286° |
| 2026-04-17 07:29 | -33.52734 | 149.37375 | 6677 ft | 192 kts | 300° |
| 2026-04-17 07:29 | -33.51947 | 149.36070 | 6413 ft | 190 kts | 301° |
| 2026-04-17 07:29 | -33.51158 | 149.34767 | 6144 ft | 191 kts | 302° |
| 2026-04-17 07:30 | -33.50322 | 149.33383 | 5855 ft | 192 kts | 301° |
| 2026-04-17 07:30 | -33.49523 | 149.32053 | 5583 ft | 194 kts | 302° |
| 2026-04-17 07:30 | -33.48727 | 149.30725 | 5306 ft | 197 kts | 301° |
| 2026-04-17 07:30 | -33.47924 | 149.29387 | 5166 ft | 194 kts | 301° |
| 2026-04-17 07:31 | -33.47130 | 149.28067 | 5104 ft | 195 kts | 302° |
| 2026-04-17 07:31 | -33.46330 | 149.26737 | 5037 ft | 194 kts | 301° |
| 2026-04-17 07:31 | -33.45563 | 149.25456 | 4964 ft | 181 kts | 301° |
| 2026-04-17 07:31 | -33.44817 | 149.24217 | 4905 ft | 184 kts | 301° |
| 2026-04-17 07:32 | -33.44064 | 149.22961 | 4853 ft | 188 kts | 300° |
| 2026-04-17 07:32 | -33.43301 | 149.21687 | 4683 ft | 176 kts | 300° |
| 2026-04-17 07:32 | -33.42623 | 149.20558 | 4441 ft | 155 kts | 300° |
| 2026-04-17 07:32 | -33.42021 | 149.19553 | 4217 ft | 139 kts | 298° |
| 2026-04-17 07:33 | -33.41465 | 149.18628 | 4056 ft | 138 kts | 300° |
| 2026-04-17 07:33 | -33.40899 | 149.17686 | 3896 ft | 138 kts | 299° |
| 2026-04-17 07:33 | -33.40341 | 149.16753 | 3701 ft | 139 kts | 298° |
| 2026-04-17 07:33 | -33.39779 | 149.15797 | 3527 ft | 138 kts | 297° |
| 2026-04-17 07:34 | -33.39228 | 149.14859 | 3349 ft | 137 kts | 298° |
| 2026-04-17 07:34 | -33.38676 | 149.13924 | 3161 ft | 136 kts | 298° |
| 2026-04-17 07:34 | -33.38199 | 149.13123 | 3105 ft | 83 kts | 308° |
| 2026-04-17 07:34 | -33.37952 | 149.12712 | 3105 ft | 47 kts | 303° |
| 2026-04-17 07:35 | -33.37786 | 149.12436 | 3105 ft | 35 kts | 304° |
| 2026-04-17 07:35 | -33.37665 | 149.12234 | 3105 ft | 24 kts | 304° |
| 2026-04-17 07:35 | -33.37573 | 149.12080 | 3105 ft | 23 kts | 305° |
| 2026-04-17 07:35 | -33.37503 | 149.11946 | 3105 ft | 11 kts | 272° |
| 2026-04-17 07:36 | -33.37479 | 149.11931 | 3105 ft | 8 kts | 107° |
| 2026-04-17 07:36 | -33.37530 | 149.12010 | 3105 ft | 16 kts | 126° |
| 2026-04-17 07:36 | -33.37619 | 149.12157 | 3105 ft | 26 kts | 126° |
| 2026-04-17 07:36 | -33.37733 | 149.12347 | 3105 ft | 26 kts | 126° |
| 2026-04-17 07:37 | -33.37824 | 149.12500 | 3105 ft | 20 kts | 125° |
| 2026-04-17 07:37 | -33.37903 | 149.12633 | 3105 ft | 17 kts | 124° |
| 2026-04-17 07:37 | -33.37967 | 149.12736 | 3105 ft | 8 kts | 144° |
| 2026-04-17 07:37 | -33.38007 | 149.12715 | 3105 ft | 7 kts | 241° |
| 2026-04-17 07:38 | -33.38036 | 149.12657 | 3105 ft | 9 kts | 238° |
| 2026-04-17 07:38 | -33.38071 | 149.12589 | 3106 ft | 8 kts | 237° |
| 2026-04-17 07:38 | -33.38096 | 149.12544 | 3106 ft | 4 kts | 234° |
| 2026-04-17 07:38 | -33.38114 | 149.12523 | 3106 ft | 3 kts | 234° |
| 2026-04-17 07:39 | -33.38119 | 149.12511 | 3106 ft | 1 kts | 253° |
| 2026-04-17 07:39 | -33.38121 | 149.12501 | 3106 ft | 0 kts | 252° |